sensor_id;sensor_type;location;lat;lon;timestamp;P1;durP1;ratioP1;P2;durP2;ratioP2
16352;SDS011;8286;51.274;9.542;2023-02-16T00:00:47;48.70;;;17.97;;
16352;SDS011;8286;51.274;9.542;2023-02-16T00:03:14;41.10;;;18.07;;
16352;SDS011;8286;51.274;9.542;2023-02-16T00:05:42;48.33;;;18.43;;
16352;SDS011;8286;51.274;9.542;2023-02-16T00:08:09;46.97;;;18.37;;
16352;SDS011;8286;51.274;9.542;2023-02-16T00:10:36;46.40;;;19.13;;
16352;SDS011;8286;51.274;9.542;2023-02-16T00:13:10;44.57;;;17.83;;
16352;SDS011;8286;51.274;9.542;2023-02-16T00:15:57;41.90;;;18.47;;
16352;SDS011;8286;51.274;9.542;2023-02-16T00:18:24;50.27;;;19.23;;
16352;SDS011;8286;51.274;9.542;2023-02-16T00:20:50;47.63;;;18.30;;
16352;SDS011;8286;51.274;9.542;2023-02-16T00:23:17;44.13;;;19.23;;
16352;SDS011;8286;51.274;9.542;2023-02-16T00:25:44;50.03;;;20.23;;
16352;SDS011;8286;51.274;9.542;2023-02-16T00:28:14;37.77;;;17.30;;
16352;SDS011;8286;51.274;9.542;2023-02-16T00:30:41;39.33;;;17.03;;
16352;SDS011;8286;51.274;9.542;2023-02-16T00:33:11;44.53;;;18.00;;
16352;SDS011;8286;51.274;9.542;2023-02-16T00:35:39;39.00;;;16.13;;
16352;SDS011;8286;51.274;9.542;2023-02-16T00:38:06;46.20;;;18.37;;
16352;SDS011;8286;51.274;9.542;2023-02-16T00:40:32;45.50;;;18.53;;
16352;SDS011;8286;51.274;9.542;2023-02-16T00:42:59;49.33;;;16.60;;
16352;SDS011;8286;51.274;9.542;2023-02-16T00:45:27;47.67;;;18.17;;
16352;SDS011;8286;51.274;9.542;2023-02-16T00:47:54;51.67;;;18.60;;
16352;SDS011;8286;51.274;9.542;2023-02-16T00:50:22;46.73;;;18.70;;
16352;SDS011;8286;51.274;9.542;2023-02-16T00:52:49;43.47;;;17.00;;
16352;SDS011;8286;51.274;9.542;2023-02-16T00:55:17;50.20;;;18.10;;
16352;SDS011;8286;51.274;9.542;2023-02-16T00:57:45;48.10;;;17.77;;
16352;SDS011;8286;51.274;9.542;2023-02-16T01:00:15;47.27;;;17.57;;
16352;SDS011;8286;51.274;9.542;2023-02-16T01:02:44;47.63;;;17.70;;
16352;SDS011;8286;51.274;9.542;2023-02-16T01:05:11;47.63;;;18.97;;
16352;SDS011;8286;51.274;9.542;2023-02-16T01:07:37;43.07;;;17.13;;
16352;SDS011;8286;51.274;9.542;2023-02-16T01:10:21;43.27;;;17.53;;
16352;SDS011;8286;51.274;9.542;2023-02-16T01:13:06;49.77;;;18.17;;
16352;SDS011;8286;51.274;9.542;2023-02-16T01:15:32;40.90;;;15.57;;
16352;SDS011;8286;51.274;9.542;2023-02-16T01:18:00;44.70;;;16.63;;
16352;SDS011;8286;51.274;9.542;2023-02-16T01:20:27;41.23;;;17.33;;
16352;SDS011;8286;51.274;9.542;2023-02-16T01:22:53;42.40;;;18.20;;
16352;SDS011;8286;51.274;9.542;2023-02-16T01:25:20;40.77;;;17.70;;
16352;SDS011;8286;51.274;9.542;2023-02-16T01:27:47;47.00;;;17.97;;
16352;SDS011;8286;51.274;9.542;2023-02-16T01:30:15;41.13;;;18.73;;
16352;SDS011;8286;51.274;9.542;2023-02-16T01:32:44;39.17;;;16.97;;
16352;SDS011;8286;51.274;9.542;2023-02-16T01:35:16;43.97;;;16.33;;
16352;SDS011;8286;51.274;9.542;2023-02-16T01:37:43;46.67;;;17.37;;
16352;SDS011;8286;51.274;9.542;2023-02-16T01:40:12;48.63;;;18.07;;
16352;SDS011;8286;51.274;9.542;2023-02-16T01:42:46;43.10;;;17.60;;
16352;SDS011;8286;51.274;9.542;2023-02-16T01:45:17;46.53;;;18.10;;
16352;SDS011;8286;51.274;9.542;2023-02-16T01:47:46;43.07;;;17.47;;
16352;SDS011;8286;51.274;9.542;2023-02-16T01:50:15;48.33;;;17.73;;
16352;SDS011;8286;51.274;9.542;2023-02-16T01:52:47;47.57;;;18.20;;
16352;SDS011;8286;51.274;9.542;2023-02-16T01:55:19;44.10;;;17.43;;
16352;SDS011;8286;51.274;9.542;2023-02-16T01:57:48;45.30;;;19.53;;
16352;SDS011;8286;51.274;9.542;2023-02-16T02:00:18;43.43;;;17.03;;
16352;SDS011;8286;51.274;9.542;2023-02-16T02:02:49;45.00;;;17.57;;
16352;SDS011;8286;51.274;9.542;2023-02-16T02:05:23;42.30;;;16.10;;
16352;SDS011;8286;51.274;9.542;2023-02-16T02:08:00;37.60;;;16.70;;
16352;SDS011;8286;51.274;9.542;2023-02-16T02:10:33;39.57;;;17.27;;
16352;SDS011;8286;51.274;9.542;2023-02-16T02:13:07;44.60;;;17.50;;
16352;SDS011;8286;51.274;9.542;2023-02-16T02:15:36;42.77;;;18.13;;
16352;SDS011;8286;51.274;9.542;2023-02-16T02:18:02;45.43;;;16.90;;
16352;SDS011;8286;51.274;9.542;2023-02-16T02:20:34;41.50;;;18.13;;
16352;SDS011;8286;51.274;9.542;2023-02-16T02:23:31;45.73;;;17.70;;
16352;SDS011;8286;51.274;9.542;2023-02-16T02:29:16;36.57;;;14.77;;
16352;SDS011;8286;51.274;9.542;2023-02-16T02:32:02;40.43;;;16.53;;
16352;SDS011;8286;51.274;9.542;2023-02-16T02:34:34;38.87;;;16.60;;
16352;SDS011;8286;51.274;9.542;2023-02-16T02:37:08;33.73;;;15.23;;
16352;SDS011;8286;51.274;9.542;2023-02-16T02:39:39;32.03;;;15.20;;
16352;SDS011;8286;51.274;9.542;2023-02-16T02:42:12;36.93;;;16.00;;
16352;SDS011;8286;51.274;9.542;2023-02-16T02:44:45;37.73;;;17.20;;
16352;SDS011;8286;51.274;9.542;2023-02-16T02:47:13;36.20;;;16.33;;
16352;SDS011;8286;51.274;9.542;2023-02-16T02:49:47;36.50;;;15.60;;
16352;SDS011;8286;51.274;9.542;2023-02-16T02:52:14;38.33;;;15.93;;
16352;SDS011;8286;51.274;9.542;2023-02-16T02:54:40;36.97;;;17.00;;
16352;SDS011;8286;51.274;9.542;2023-02-16T02:57:25;48.40;;;18.20;;
16352;SDS011;8286;51.274;9.542;2023-02-16T03:00:14;41.00;;;17.07;;
16352;SDS011;8286;51.274;9.542;2023-02-16T03:03:01;43.53;;;17.30;;
16352;SDS011;8286;51.274;9.542;2023-02-16T03:05:30;48.23;;;19.43;;
16352;SDS011;8286;51.274;9.542;2023-02-16T03:07:59;48.20;;;17.63;;
16352;SDS011;8286;51.274;9.542;2023-02-16T03:10:30;44.67;;;19.33;;
16352;SDS011;8286;51.274;9.542;2023-02-16T03:13:17;48.40;;;18.27;;
16352;SDS011;8286;51.274;9.542;2023-02-16T03:15:48;41.70;;;16.83;;
16352;SDS011;8286;51.274;9.542;2023-02-16T03:18:15;36.40;;;16.43;;
16352;SDS011;8286;51.274;9.542;2023-02-16T03:21:00;48.37;;;17.13;;
16352;SDS011;8286;51.274;9.542;2023-02-16T03:23:45;42.67;;;17.33;;
16352;SDS011;8286;51.274;9.542;2023-02-16T03:26:31;43.13;;;16.13;;
16352;SDS011;8286;51.274;9.542;2023-02-16T03:29:15;48.83;;;17.93;;
16352;SDS011;8286;51.274;9.542;2023-02-16T03:31:44;41.93;;;18.07;;
16352;SDS011;8286;51.274;9.542;2023-02-16T03:34:11;42.17;;;16.83;;
16352;SDS011;8286;51.274;9.542;2023-02-16T03:36:39;42.60;;;17.67;;
16352;SDS011;8286;51.274;9.542;2023-02-16T03:39:07;43.67;;;17.47;;
16352;SDS011;8286;51.274;9.542;2023-02-16T03:41:37;44.77;;;18.37;;
16352;SDS011;8286;51.274;9.542;2023-02-16T03:44:04;44.03;;;18.33;;
16352;SDS011;8286;51.274;9.542;2023-02-16T03:46:31;52.97;;;18.30;;
16352;SDS011;8286;51.274;9.542;2023-02-16T03:48:59;48.00;;;19.37;;
16352;SDS011;8286;51.274;9.542;2023-02-16T03:51:26;46.27;;;17.77;;
16352;SDS011;8286;51.274;9.542;2023-02-16T03:53:52;46.53;;;18.97;;
16352;SDS011;8286;51.274;9.542;2023-02-16T03:56:19;43.10;;;17.03;;
16352;SDS011;8286;51.274;9.542;2023-02-16T03:58:45;46.73;;;18.40;;
16352;SDS011;8286;51.274;9.542;2023-02-16T04:01:12;46.63;;;19.37;;
16352;SDS011;8286;51.274;9.542;2023-02-16T04:03:38;47.53;;;18.37;;
16352;SDS011;8286;51.274;9.542;2023-02-16T04:06:06;47.33;;;18.50;;
16352;SDS011;8286;51.274;9.542;2023-02-16T04:08:33;41.03;;;18.23;;
16352;SDS011;8286;51.274;9.542;2023-02-16T04:11:00;51.63;;;19.40;;
16352;SDS011;8286;51.274;9.542;2023-02-16T04:13:46;47.30;;;19.40;;
16352;SDS011;8286;51.274;9.542;2023-02-16T04:16:12;47.70;;;18.13;;
16352;SDS011;8286;51.274;9.542;2023-02-16T04:18:38;47.33;;;17.60;;
16352;SDS011;8286;51.274;9.542;2023-02-16T04:21:05;53.67;;;19.37;;
16352;SDS011;8286;51.274;9.542;2023-02-16T04:23:32;45.60;;;18.00;;
16352;SDS011;8286;51.274;9.542;2023-02-16T04:25:59;49.10;;;19.43;;
16352;SDS011;8286;51.274;9.542;2023-02-16T04:28:25;44.47;;;18.87;;
16352;SDS011;8286;51.274;9.542;2023-02-16T04:30:52;54.63;;;18.57;;
16352;SDS011;8286;51.274;9.542;2023-02-16T04:33:19;51.07;;;19.00;;
16352;SDS011;8286;51.274;9.542;2023-02-16T04:35:45;45.00;;;18.90;;
16352;SDS011;8286;51.274;9.542;2023-02-16T04:38:13;45.97;;;17.53;;
16352;SDS011;8286;51.274;9.542;2023-02-16T04:40:39;49.53;;;19.03;;
16352;SDS011;8286;51.274;9.542;2023-02-16T04:43:06;44.57;;;18.37;;
16352;SDS011;8286;51.274;9.542;2023-02-16T04:45:33;46.73;;;17.53;;
16352;SDS011;8286;51.274;9.542;2023-02-16T04:50:51;53.93;;;18.90;;
16352;SDS011;8286;51.274;9.542;2023-02-16T04:53:18;46.47;;;18.43;;
16352;SDS011;8286;51.274;9.542;2023-02-16T04:55:45;52.00;;;18.27;;
16352;SDS011;8286;51.274;9.542;2023-02-16T04:58:12;46.47;;;19.50;;
16352;SDS011;8286;51.274;9.542;2023-02-16T05:00:38;45.13;;;17.87;;
16352;SDS011;8286;51.274;9.542;2023-02-16T05:03:05;44.03;;;16.83;;
16352;SDS011;8286;51.274;9.542;2023-02-16T05:08:00;38.90;;;15.83;;
16352;SDS011;8286;51.274;9.542;2023-02-16T05:10:28;37.27;;;16.03;;
16352;SDS011;8286;51.274;9.542;2023-02-16T05:12:55;39.20;;;16.43;;
16352;SDS011;8286;51.274;9.542;2023-02-16T05:15:39;43.53;;;17.23;;
16352;SDS011;8286;51.274;9.542;2023-02-16T05:18:06;41.73;;;17.27;;
16352;SDS011;8286;51.274;9.542;2023-02-16T05:20:32;36.40;;;14.67;;
16352;SDS011;8286;51.274;9.542;2023-02-16T05:23:16;39.17;;;16.30;;
16352;SDS011;8286;51.274;9.542;2023-02-16T05:25:44;39.93;;;16.43;;
16352;SDS011;8286;51.274;9.542;2023-02-16T05:28:11;45.37;;;17.83;;
16352;SDS011;8286;51.274;9.542;2023-02-16T05:30:37;37.77;;;16.70;;
16352;SDS011;8286;51.274;9.542;2023-02-16T05:33:04;38.20;;;15.77;;
16352;SDS011;8286;51.274;9.542;2023-02-16T05:35:30;42.27;;;17.60;;
16352;SDS011;8286;51.274;9.542;2023-02-16T05:37:58;43.17;;;17.67;;
16352;SDS011;8286;51.274;9.542;2023-02-16T05:40:24;49.20;;;17.80;;
16352;SDS011;8286;51.274;9.542;2023-02-16T05:42:52;44.80;;;17.37;;
16352;SDS011;8286;51.274;9.542;2023-02-16T05:45:19;42.40;;;18.47;;
16352;SDS011;8286;51.274;9.542;2023-02-16T05:47:45;38.50;;;15.90;;
16352;SDS011;8286;51.274;9.542;2023-02-16T05:50:12;41.83;;;16.17;;
16352;SDS011;8286;51.274;9.542;2023-02-16T05:52:38;38.97;;;17.27;;
16352;SDS011;8286;51.274;9.542;2023-02-16T05:55:05;36.90;;;16.53;;
16352;SDS011;8286;51.274;9.542;2023-02-16T05:57:31;41.63;;;17.17;;
16352;SDS011;8286;51.274;9.542;2023-02-16T06:00:01;43.20;;;17.57;;
16352;SDS011;8286;51.274;9.542;2023-02-16T06:02:28;43.23;;;16.30;;
16352;SDS011;8286;51.274;9.542;2023-02-16T06:04:54;38.20;;;16.90;;
16352;SDS011;8286;51.274;9.542;2023-02-16T06:07:21;42.73;;;17.30;;
16352;SDS011;8286;51.274;9.542;2023-02-16T06:09:47;47.10;;;16.53;;
16352;SDS011;8286;51.274;9.542;2023-02-16T06:12:14;40.50;;;16.43;;
16352;SDS011;8286;51.274;9.542;2023-02-16T06:14:40;48.43;;;18.17;;
16352;SDS011;8286;51.274;9.542;2023-02-16T06:17:08;43.67;;;18.63;;
16352;SDS011;8286;51.274;9.542;2023-02-16T06:19:34;47.63;;;18.23;;
16352;SDS011;8286;51.274;9.542;2023-02-16T06:22:01;45.50;;;18.03;;
16352;SDS011;8286;51.274;9.542;2023-02-16T06:24:27;44.03;;;17.43;;
16352;SDS011;8286;51.274;9.542;2023-02-16T06:26:54;44.20;;;17.77;;
16352;SDS011;8286;51.274;9.542;2023-02-16T06:29:20;46.17;;;18.37;;
16352;SDS011;8286;51.274;9.542;2023-02-16T06:31:46;41.90;;;17.33;;
16352;SDS011;8286;51.274;9.542;2023-02-16T06:34:14;40.50;;;16.57;;
16352;SDS011;8286;51.274;9.542;2023-02-16T06:36:41;39.80;;;16.80;;
16352;SDS011;8286;51.274;9.542;2023-02-16T06:39:07;43.23;;;17.27;;
16352;SDS011;8286;51.274;9.542;2023-02-16T06:41:34;39.70;;;16.20;;
16352;SDS011;8286;51.274;9.542;2023-02-16T06:44:04;42.97;;;16.90;;
16352;SDS011;8286;51.274;9.542;2023-02-16T06:46:32;43.30;;;16.30;;
16352;SDS011;8286;51.274;9.542;2023-02-16T06:48:58;46.63;;;18.03;;
16352;SDS011;8286;51.274;9.542;2023-02-16T06:51:26;49.00;;;18.63;;
16352;SDS011;8286;51.274;9.542;2023-02-16T06:53:53;47.03;;;17.50;;
16352;SDS011;8286;51.274;9.542;2023-02-16T06:56:19;43.77;;;17.13;;
16352;SDS011;8286;51.274;9.542;2023-02-16T06:58:46;48.03;;;18.23;;
16352;SDS011;8286;51.274;9.542;2023-02-16T07:01:12;51.90;;;18.87;;
16352;SDS011;8286;51.274;9.542;2023-02-16T07:03:40;45.67;;;17.10;;
16352;SDS011;8286;51.274;9.542;2023-02-16T07:06:08;38.50;;;16.60;;
16352;SDS011;8286;51.274;9.542;2023-02-16T07:08:36;45.83;;;19.23;;
16352;SDS011;8286;51.274;9.542;2023-02-16T07:11:03;43.90;;;16.70;;
16352;SDS011;8286;51.274;9.542;2023-02-16T07:13:29;43.73;;;18.23;;
16352;SDS011;8286;51.274;9.542;2023-02-16T07:16:00;42.80;;;18.87;;
16352;SDS011;8286;51.274;9.542;2023-02-16T07:18:27;40.97;;;17.30;;
16352;SDS011;8286;51.274;9.542;2023-02-16T07:20:53;34.67;;;16.23;;
16352;SDS011;8286;51.274;9.542;2023-02-16T07:23:20;38.07;;;17.23;;
16352;SDS011;8286;51.274;9.542;2023-02-16T07:25:48;41.53;;;16.70;;
16352;SDS011;8286;51.274;9.542;2023-02-16T07:28:14;42.27;;;16.87;;
16352;SDS011;8286;51.274;9.542;2023-02-16T07:30:41;44.10;;;18.43;;
16352;SDS011;8286;51.274;9.542;2023-02-16T07:33:08;43.10;;;18.27;;
16352;SDS011;8286;51.274;9.542;2023-02-16T07:35:34;47.27;;;18.03;;
16352;SDS011;8286;51.274;9.542;2023-02-16T07:38:03;43.83;;;18.73;;
16352;SDS011;8286;51.274;9.542;2023-02-16T07:40:34;51.40;;;17.70;;
16352;SDS011;8286;51.274;9.542;2023-02-16T07:43:03;43.43;;;17.07;;
16352;SDS011;8286;51.274;9.542;2023-02-16T07:45:30;44.27;;;18.37;;
16352;SDS011;8286;51.274;9.542;2023-02-16T07:47:58;50.17;;;18.13;;
16352;SDS011;8286;51.274;9.542;2023-02-16T07:50:24;48.17;;;18.37;;
16352;SDS011;8286;51.274;9.542;2023-02-16T07:52:51;50.23;;;19.80;;
16352;SDS011;8286;51.274;9.542;2023-02-16T07:55:17;44.57;;;18.57;;
16352;SDS011;8286;51.274;9.542;2023-02-16T07:57:44;45.40;;;17.23;;
16352;SDS011;8286;51.274;9.542;2023-02-16T08:00:15;44.93;;;17.30;;
16352;SDS011;8286;51.274;9.542;2023-02-16T08:02:42;42.77;;;16.57;;
16352;SDS011;8286;51.274;9.542;2023-02-16T08:05:08;45.73;;;17.17;;
16352;SDS011;8286;51.274;9.542;2023-02-16T08:07:35;53.63;;;18.67;;
16352;SDS011;8286;51.274;9.542;2023-02-16T08:10:01;43.87;;;17.30;;
16352;SDS011;8286;51.274;9.542;2023-02-16T08:12:29;44.60;;;18.07;;
16352;SDS011;8286;51.274;9.542;2023-02-16T08:14:56;45.93;;;18.37;;
16352;SDS011;8286;51.274;9.542;2023-02-16T08:17:24;42.30;;;16.90;;
16352;SDS011;8286;51.274;9.542;2023-02-16T08:19:50;42.33;;;17.13;;
16352;SDS011;8286;51.274;9.542;2023-02-16T08:22:17;49.03;;;18.20;;
16352;SDS011;8286;51.274;9.542;2023-02-16T08:24:43;42.63;;;17.90;;
16352;SDS011;8286;51.274;9.542;2023-02-16T08:27:09;41.03;;;17.17;;
16352;SDS011;8286;51.274;9.542;2023-02-16T08:29:36;49.47;;;18.07;;
16352;SDS011;8286;51.274;9.542;2023-02-16T08:32:03;45.73;;;18.07;;
16352;SDS011;8286;51.274;9.542;2023-02-16T08:34:33;40.60;;;16.57;;
16352;SDS011;8286;51.274;9.542;2023-02-16T08:37:00;43.27;;;17.17;;
16352;SDS011;8286;51.274;9.542;2023-02-16T08:39:28;40.70;;;17.47;;
16352;SDS011;8286;51.274;9.542;2023-02-16T08:41:56;51.53;;;18.80;;
16352;SDS011;8286;51.274;9.542;2023-02-16T08:44:23;45.47;;;18.13;;
16352;SDS011;8286;51.274;9.542;2023-02-16T08:46:50;48.43;;;18.80;;
16352;SDS011;8286;51.274;9.542;2023-02-16T08:49:18;43.87;;;17.43;;
16352;SDS011;8286;51.274;9.542;2023-02-16T08:51:48;36.33;;;17.60;;
16352;SDS011;8286;51.274;9.542;2023-02-16T08:54:16;42.63;;;17.50;;
16352;SDS011;8286;51.274;9.542;2023-02-16T08:56:44;38.93;;;17.30;;
16352;SDS011;8286;51.274;9.542;2023-02-16T08:59:12;41.57;;;17.33;;
16352;SDS011;8286;51.274;9.542;2023-02-16T09:01:39;37.40;;;16.23;;
16352;SDS011;8286;51.274;9.542;2023-02-16T09:04:06;45.43;;;18.20;;
16352;SDS011;8286;51.274;9.542;2023-02-16T09:06:35;35.30;;;16.47;;
16352;SDS011;8286;51.274;9.542;2023-02-16T09:09:03;34.37;;;16.83;;
16352;SDS011;8286;51.274;9.542;2023-02-16T09:11:30;46.03;;;18.77;;
16352;SDS011;8286;51.274;9.542;2023-02-16T09:13:56;48.97;;;18.50;;
16352;SDS011;8286;51.274;9.542;2023-02-16T09:16:23;38.77;;;18.60;;
16352;SDS011;8286;51.274;9.542;2023-02-16T09:18:51;38.50;;;16.30;;
16352;SDS011;8286;51.274;9.542;2023-02-16T09:21:19;37.23;;;16.47;;
16352;SDS011;8286;51.274;9.542;2023-02-16T09:23:47;37.13;;;16.67;;
16352;SDS011;8286;51.274;9.542;2023-02-16T09:26:17;39.03;;;16.03;;
16352;SDS011;8286;51.274;9.542;2023-02-16T09:28:45;41.23;;;18.00;;
16352;SDS011;8286;51.274;9.542;2023-02-16T09:31:13;37.60;;;17.43;;
16352;SDS011;8286;51.274;9.542;2023-02-16T09:33:41;42.13;;;15.80;;
16352;SDS011;8286;51.274;9.542;2023-02-16T09:36:09;32.50;;;14.77;;
16352;SDS011;8286;51.274;9.542;2023-02-16T09:38:37;44.73;;;17.70;;
16352;SDS011;8286;51.274;9.542;2023-02-16T09:41:04;42.80;;;16.47;;
16352;SDS011;8286;51.274;9.542;2023-02-16T09:43:36;43.03;;;17.03;;
16352;SDS011;8286;51.274;9.542;2023-02-16T09:46:09;38.60;;;17.57;;
16352;SDS011;8286;51.274;9.542;2023-02-16T09:48:39;31.70;;;15.47;;
16352;SDS011;8286;51.274;9.542;2023-02-16T09:51:09;37.93;;;17.80;;
16352;SDS011;8286;51.274;9.542;2023-02-16T09:53:41;35.40;;;16.10;;
16352;SDS011;8286;51.274;9.542;2023-02-16T09:56:13;36.33;;;15.20;;
16352;SDS011;8286;51.274;9.542;2023-02-16T09:58:45;33.50;;;14.30;;
16352;SDS011;8286;51.274;9.542;2023-02-16T10:01:16;35.17;;;15.57;;
16352;SDS011;8286;51.274;9.542;2023-02-16T10:03:53;30.97;;;13.93;;
16352;SDS011;8286;51.274;9.542;2023-02-16T10:06:26;33.97;;;14.90;;
16352;SDS011;8286;51.274;9.542;2023-02-16T10:08:57;32.43;;;15.07;;
16352;SDS011;8286;51.274;9.542;2023-02-16T10:11:25;26.00;;;13.67;;
16352;SDS011;8286;51.274;9.542;2023-02-16T10:14:07;33.10;;;14.70;;
16352;SDS011;8286;51.274;9.542;2023-02-16T10:16:39;36.83;;;15.33;;
16352;SDS011;8286;51.274;9.542;2023-02-16T10:19:11;32.40;;;14.37;;
16352;SDS011;8286;51.274;9.542;2023-02-16T10:21:43;32.77;;;15.23;;
16352;SDS011;8286;51.274;9.542;2023-02-16T10:24:13;31.87;;;14.70;;
16352;SDS011;8286;51.274;9.542;2023-02-16T10:26:41;33.07;;;14.00;;
16352;SDS011;8286;51.274;9.542;2023-02-16T10:29:12;31.20;;;16.20;;
16352;SDS011;8286;51.274;9.542;2023-02-16T10:31:41;28.53;;;14.80;;
16352;SDS011;8286;51.274;9.542;2023-02-16T10:34:15;34.60;;;15.00;;
16352;SDS011;8286;51.274;9.542;2023-02-16T10:39:28;35.80;;;15.83;;
16352;SDS011;8286;51.274;9.542;2023-02-16T10:42:01;33.67;;;15.63;;
16352;SDS011;8286;51.274;9.542;2023-02-16T10:44:35;31.67;;;15.90;;
16352;SDS011;8286;51.274;9.542;2023-02-16T10:47:05;35.33;;;16.57;;
16352;SDS011;8286;51.274;9.542;2023-02-16T10:49:43;35.03;;;16.63;;
16352;SDS011;8286;51.274;9.542;2023-02-16T10:52:11;37.60;;;16.40;;
16352;SDS011;8286;51.274;9.542;2023-02-16T10:54:38;29.30;;;14.70;;
16352;SDS011;8286;51.274;9.542;2023-02-16T10:57:06;36.60;;;15.77;;
16352;SDS011;8286;51.274;9.542;2023-02-16T10:59:43;31.10;;;14.47;;
16352;SDS011;8286;51.274;9.542;2023-02-16T11:02:15;32.23;;;14.03;;
16352;SDS011;8286;51.274;9.542;2023-02-16T11:04:44;37.77;;;14.77;;
16352;SDS011;8286;51.274;9.542;2023-02-16T11:07:13;34.40;;;15.17;;
16352;SDS011;8286;51.274;9.542;2023-02-16T11:09:41;30.07;;;15.20;;
16352;SDS011;8286;51.274;9.542;2023-02-16T11:12:15;29.37;;;14.63;;
16352;SDS011;8286;51.274;9.542;2023-02-16T11:14:48;31.80;;;14.53;;
16352;SDS011;8286;51.274;9.542;2023-02-16T11:17:16;28.00;;;15.07;;
16352;SDS011;8286;51.274;9.542;2023-02-16T11:19:49;28.70;;;14.03;;
16352;SDS011;8286;51.274;9.542;2023-02-16T11:22:28;28.73;;;14.13;;
16352;SDS011;8286;51.274;9.542;2023-02-16T11:25:10;30.07;;;14.67;;
16352;SDS011;8286;51.274;9.542;2023-02-16T11:27:47;30.50;;;14.63;;
16352;SDS011;8286;51.274;9.542;2023-02-16T11:30:19;30.17;;;14.07;;
16352;SDS011;8286;51.274;9.542;2023-02-16T11:32:56;30.70;;;14.50;;
16352;SDS011;8286;51.274;9.542;2023-02-16T11:35:23;29.80;;;14.37;;
16352;SDS011;8286;51.274;9.542;2023-02-16T11:37:50;33.10;;;15.60;;
16352;SDS011;8286;51.274;9.542;2023-02-16T11:40:18;27.47;;;13.90;;
16352;SDS011;8286;51.274;9.542;2023-02-16T11:42:47;24.40;;;13.57;;
16352;SDS011;8286;51.274;9.542;2023-02-16T11:45:21;22.37;;;12.43;;
16352;SDS011;8286;51.274;9.542;2023-02-16T11:47:51;26.67;;;13.63;;
16352;SDS011;8286;51.274;9.542;2023-02-16T11:50:20;28.00;;;15.20;;
16352;SDS011;8286;51.274;9.542;2023-02-16T11:52:50;28.43;;;14.37;;
16352;SDS011;8286;51.274;9.542;2023-02-16T11:55:19;27.60;;;13.97;;
16352;SDS011;8286;51.274;9.542;2023-02-16T11:57:50;27.63;;;14.57;;
16352;SDS011;8286;51.274;9.542;2023-02-16T12:00:18;32.63;;;14.87;;
16352;SDS011;8286;51.274;9.542;2023-02-16T12:03:08;26.90;;;14.60;;
16352;SDS011;8286;51.274;9.542;2023-02-16T12:05:49;27.23;;;14.33;;
16352;SDS011;8286;51.274;9.542;2023-02-16T12:08:28;24.67;;;14.20;;
16352;SDS011;8286;51.274;9.542;2023-02-16T12:11:09;29.93;;;13.23;;
16352;SDS011;8286;51.274;9.542;2023-02-16T12:13:50;23.87;;;13.00;;
16352;SDS011;8286;51.274;9.542;2023-02-16T12:16:26;24.77;;;11.80;;
16352;SDS011;8286;51.274;9.542;2023-02-16T12:19:01;27.10;;;14.23;;
16352;SDS011;8286;51.274;9.542;2023-02-16T12:21:38;26.67;;;13.07;;
16352;SDS011;8286;51.274;9.542;2023-02-16T12:24:11;23.20;;;12.70;;
16352;SDS011;8286;51.274;9.542;2023-02-16T12:26:45;24.17;;;13.47;;
16352;SDS011;8286;51.274;9.542;2023-02-16T12:29:18;29.47;;;13.63;;
16352;SDS011;8286;51.274;9.542;2023-02-16T12:34:48;24.47;;;13.47;;
16352;SDS011;8286;51.274;9.542;2023-02-16T12:37:23;26.17;;;13.20;;
16352;SDS011;8286;51.274;9.542;2023-02-16T12:39:58;21.90;;;12.60;;
16352;SDS011;8286;51.274;9.542;2023-02-16T12:42:35;23.33;;;11.90;;
16352;SDS011;8286;51.274;9.542;2023-02-16T12:45:09;23.33;;;13.57;;
16352;SDS011;8286;51.274;9.542;2023-02-16T12:47:39;19.13;;;11.93;;
16352;SDS011;8286;51.274;9.542;2023-02-16T12:50:14;24.57;;;13.27;;
16352;SDS011;8286;51.274;9.542;2023-02-16T12:52:45;28.53;;;13.73;;
16352;SDS011;8286;51.274;9.542;2023-02-16T12:55:18;24.47;;;13.90;;
16352;SDS011;8286;51.274;9.542;2023-02-16T12:57:49;24.07;;;12.93;;
16352;SDS011;8286;51.274;9.542;2023-02-16T13:00:21;27.57;;;14.33;;
16352;SDS011;8286;51.274;9.542;2023-02-16T13:02:52;26.33;;;14.07;;
16352;SDS011;8286;51.274;9.542;2023-02-16T13:05:24;26.03;;;12.90;;
16352;SDS011;8286;51.274;9.542;2023-02-16T13:07:53;26.13;;;12.70;;
16352;SDS011;8286;51.274;9.542;2023-02-16T13:10:23;23.77;;;13.70;;
16352;SDS011;8286;51.274;9.542;2023-02-16T13:12:53;25.17;;;14.20;;
16352;SDS011;8286;51.274;9.542;2023-02-16T13:15:22;25.63;;;13.83;;
16352;SDS011;8286;51.274;9.542;2023-02-16T13:17:52;23.53;;;14.27;;
16352;SDS011;8286;51.274;9.542;2023-02-16T13:20:21;25.17;;;13.10;;
16352;SDS011;8286;51.274;9.542;2023-02-16T13:26:00;25.20;;;13.20;;
16352;SDS011;8286;51.274;9.542;2023-02-16T13:28:38;25.37;;;13.00;;
16352;SDS011;8286;51.274;9.542;2023-02-16T13:31:22;29.80;;;13.40;;
16352;SDS011;8286;51.274;9.542;2023-02-16T13:34:06;25.93;;;13.87;;
16352;SDS011;8286;51.274;9.542;2023-02-16T13:36:43;21.20;;;13.00;;
16352;SDS011;8286;51.274;9.542;2023-02-16T13:42:14;23.43;;;12.73;;
16352;SDS011;8286;51.274;9.542;2023-02-16T13:44:59;22.70;;;14.13;;
16352;SDS011;8286;51.274;9.542;2023-02-16T13:47:28;27.90;;;14.70;;
16352;SDS011;8286;51.274;9.542;2023-02-16T13:49:57;24.27;;;14.10;;
16352;SDS011;8286;51.274;9.542;2023-02-16T13:52:28;25.50;;;14.27;;
16352;SDS011;8286;51.274;9.542;2023-02-16T13:54:56;27.90;;;14.23;;
16352;SDS011;8286;51.274;9.542;2023-02-16T14:00:25;23.77;;;13.17;;
16352;SDS011;8286;51.274;9.542;2023-02-16T14:02:55;25.23;;;13.80;;
16352;SDS011;8286;51.274;9.542;2023-02-16T14:05:24;28.07;;;15.23;;
16352;SDS011;8286;51.274;9.542;2023-02-16T14:10:58;22.10;;;12.30;;
16352;SDS011;8286;51.274;9.542;2023-02-16T14:13:31;28.97;;;14.20;;
16352;SDS011;8286;51.274;9.542;2023-02-16T14:16:00;24.90;;;14.13;;
16352;SDS011;8286;51.274;9.542;2023-02-16T14:18:32;22.37;;;12.87;;
16352;SDS011;8286;51.274;9.542;2023-02-16T14:21:04;27.27;;;14.00;;
16352;SDS011;8286;51.274;9.542;2023-02-16T14:23:42;27.77;;;13.23;;
16352;SDS011;8286;51.274;9.542;2023-02-16T14:26:10;25.23;;;13.10;;
16352;SDS011;8286;51.274;9.542;2023-02-16T14:31:44;24.13;;;12.77;;
16352;SDS011;8286;51.274;9.542;2023-02-16T14:34:14;23.70;;;13.77;;
16352;SDS011;8286;51.274;9.542;2023-02-16T14:37:07;25.43;;;13.30;;
16352;SDS011;8286;51.274;9.542;2023-02-16T14:39:50;23.00;;;12.97;;
16352;SDS011;8286;51.274;9.542;2023-02-16T14:42:20;28.83;;;13.77;;
16352;SDS011;8286;51.274;9.542;2023-02-16T14:44:54;28.60;;;14.20;;
16352;SDS011;8286;51.274;9.542;2023-02-16T14:47:30;28.63;;;14.30;;
16352;SDS011;8286;51.274;9.542;2023-02-16T14:50:15;26.90;;;14.33;;
16352;SDS011;8286;51.274;9.542;2023-02-16T14:53:01;25.83;;;14.53;;
16352;SDS011;8286;51.274;9.542;2023-02-16T14:56:06;28.20;;;14.87;;
16352;SDS011;8286;51.274;9.542;2023-02-16T14:58:43;24.70;;;13.93;;
16352;SDS011;8286;51.274;9.542;2023-02-16T15:01:15;29.10;;;13.70;;
16352;SDS011;8286;51.274;9.542;2023-02-16T15:03:43;33.23;;;14.00;;
16352;SDS011;8286;51.274;9.542;2023-02-16T15:06:17;27.47;;;14.77;;
16352;SDS011;8286;51.274;9.542;2023-02-16T15:08:46;29.83;;;14.57;;
16352;SDS011;8286;51.274;9.542;2023-02-16T15:11:23;31.77;;;14.47;;
16352;SDS011;8286;51.274;9.542;2023-02-16T15:14:05;28.17;;;15.17;;
16352;SDS011;8286;51.274;9.542;2023-02-16T15:16:34;30.30;;;15.57;;
16352;SDS011;8286;51.274;9.542;2023-02-16T15:19:06;27.90;;;14.90;;
16352;SDS011;8286;51.274;9.542;2023-02-16T15:21:34;28.07;;;14.03;;